sensor_id;sensor_type;location;lat;lon;timestamp;P1;durP1;ratioP1;P2;durP2;ratioP2
57331;SDS011;43164;50.908;18.092;2023-02-15T00:01:04;13.00;;;6.40;;
57331;SDS011;43164;50.908;18.092;2023-02-15T00:03:34;14.40;;;6.00;;
57331;SDS011;43164;50.908;18.092;2023-02-15T00:06:02;14.90;;;6.80;;
57331;SDS011;43164;50.908;18.092;2023-02-15T00:08:30;12.80;;;5.60;;
57331;SDS011;43164;50.908;18.092;2023-02-15T00:11:11;13.50;;;6.30;;
57331;SDS011;43164;50.908;18.092;2023-02-15T00:13:41;17.60;;;6.70;;
57331;SDS011;43164;50.908;18.092;2023-02-15T00:16:10;15.70;;;6.30;;
57331;SDS011;43164;50.908;18.092;2023-02-15T00:18:39;13.80;;;6.10;;
57331;SDS011;43164;50.908;18.092;2023-02-15T00:21:07;14.70;;;6.90;;
57331;SDS011;43164;50.908;18.092;2023-02-15T00:23:35;13.80;;;6.20;;
57331;SDS011;43164;50.908;18.092;2023-02-15T00:26:04;13.00;;;5.60;;
57331;SDS011;43164;50.908;18.092;2023-02-15T00:32:03;11.90;;;5.40;;
57331;SDS011;43164;50.908;18.092;2023-02-15T00:34:30;14.80;;;5.90;;
57331;SDS011;43164;50.908;18.092;2023-02-15T00:36:58;12.70;;;6.00;;
57331;SDS011;43164;50.908;18.092;2023-02-15T00:39:25;15.10;;;6.10;;
57331;SDS011;43164;50.908;18.092;2023-02-15T00:41:54;12.70;;;5.30;;
57331;SDS011;43164;50.908;18.092;2023-02-15T00:44:22;12.70;;;6.00;;
57331;SDS011;43164;50.908;18.092;2023-02-15T00:46:50;12.30;;;5.70;;
57331;SDS011;43164;50.908;18.092;2023-02-15T00:49:17;12.80;;;6.40;;
57331;SDS011;43164;50.908;18.092;2023-02-15T00:51:46;14.70;;;6.00;;
57331;SDS011;43164;50.908;18.092;2023-02-15T00:54:14;14.20;;;6.20;;
57331;SDS011;43164;50.908;18.092;2023-02-15T00:56:41;12.70;;;6.00;;
57331;SDS011;43164;50.908;18.092;2023-02-15T00:59:11;13.30;;;6.40;;
57331;SDS011;43164;50.908;18.092;2023-02-15T01:01:39;15.60;;;5.90;;
57331;SDS011;43164;50.908;18.092;2023-02-15T01:04:06;13.80;;;6.50;;
57331;SDS011;43164;50.908;18.092;2023-02-15T01:06:34;16.50;;;6.80;;
57331;SDS011;43164;50.908;18.092;2023-02-15T01:09:01;16.60;;;7.90;;
57331;SDS011;43164;50.908;18.092;2023-02-15T01:11:29;16.20;;;7.80;;
57331;SDS011;43164;50.908;18.092;2023-02-15T01:13:57;16.90;;;6.80;;
57331;SDS011;43164;50.908;18.092;2023-02-15T01:16:26;13.60;;;6.40;;
57331;SDS011;43164;50.908;18.092;2023-02-15T01:18:55;14.70;;;7.40;;
57331;SDS011;43164;50.908;18.092;2023-02-15T01:21:24;20.40;;;8.30;;
57331;SDS011;43164;50.908;18.092;2023-02-15T01:23:53;17.40;;;8.20;;
57331;SDS011;43164;50.908;18.092;2023-02-15T01:26:21;17.90;;;9.60;;
57331;SDS011;43164;50.908;18.092;2023-02-15T01:28:49;30.40;;;15.40;;
57331;SDS011;43164;50.908;18.092;2023-02-15T01:31:17;23.50;;;11.60;;
57331;SDS011;43164;50.908;18.092;2023-02-15T01:33:47;24.00;;;10.10;;
57331;SDS011;43164;50.908;18.092;2023-02-15T01:36:15;21.60;;;9.60;;
57331;SDS011;43164;50.908;18.092;2023-02-15T01:38:44;20.70;;;10.20;;
57331;SDS011;43164;50.908;18.092;2023-02-15T01:41:11;26.40;;;13.80;;
57331;SDS011;43164;50.908;18.092;2023-02-15T01:43:58;25.50;;;13.30;;
57331;SDS011;43164;50.908;18.092;2023-02-15T01:46:34;22.00;;;11.10;;
57331;SDS011;43164;50.908;18.092;2023-02-15T01:51:39;22.40;;;10.80;;
57331;SDS011;43164;50.908;18.092;2023-02-15T01:54:14;22.30;;;10.90;;
57331;SDS011;43164;50.908;18.092;2023-02-15T01:56:48;20.40;;;10.30;;
57331;SDS011;43164;50.908;18.092;2023-02-15T01:59:17;17.70;;;10.20;;
57331;SDS011;43164;50.908;18.092;2023-02-15T02:01:51;15.80;;;7.90;;
57331;SDS011;43164;50.908;18.092;2023-02-15T02:04:23;16.60;;;7.90;;
57331;SDS011;43164;50.908;18.092;2023-02-15T02:06:54;15.70;;;7.80;;
57331;SDS011;43164;50.908;18.092;2023-02-15T02:09:22;33.90;;;9.10;;
57331;SDS011;43164;50.908;18.092;2023-02-15T02:11:50;14.10;;;7.00;;
57331;SDS011;43164;50.908;18.092;2023-02-15T02:14:24;16.00;;;7.10;;
57331;SDS011;43164;50.908;18.092;2023-02-15T02:20:05;17.50;;;7.50;;
57331;SDS011;43164;50.908;18.092;2023-02-15T02:23:06;15.00;;;7.30;;
57331;SDS011;43164;50.908;18.092;2023-02-15T02:34:13;17.60;;;7.70;;
57331;SDS011;43164;50.908;18.092;2023-02-15T02:37:36;15.70;;;8.00;;
57331;SDS011;43164;50.908;18.092;2023-02-15T02:40:25;18.50;;;8.70;;
57331;SDS011;43164;50.908;18.092;2023-02-15T02:46:26;16.00;;;8.70;;
57331;SDS011;43164;50.908;18.092;2023-02-15T02:49:07;15.10;;;7.40;;
57331;SDS011;43164;50.908;18.092;2023-02-15T02:51:34;16.70;;;7.80;;
57331;SDS011;43164;50.908;18.092;2023-02-15T02:54:03;16.20;;;7.20;;
57331;SDS011;43164;50.908;18.092;2023-02-15T02:56:34;17.90;;;8.30;;
57331;SDS011;43164;50.908;18.092;2023-02-15T02:59:17;18.50;;;7.40;;
57331;SDS011;43164;50.908;18.092;2023-02-15T03:01:56;16.20;;;7.80;;
57331;SDS011;43164;50.908;18.092;2023-02-15T03:04:31;17.10;;;7.90;;
57331;SDS011;43164;50.908;18.092;2023-02-15T03:07:04;17.90;;;8.10;;
57331;SDS011;43164;50.908;18.092;2023-02-15T03:09:45;16.20;;;7.20;;
57331;SDS011;43164;50.908;18.092;2023-02-15T03:12:26;18.40;;;8.30;;
57331;SDS011;43164;50.908;18.092;2023-02-15T03:17:38;14.50;;;6.70;;
57331;SDS011;43164;50.908;18.092;2023-02-15T03:23:09;15.10;;;6.60;;
57331;SDS011;43164;50.908;18.092;2023-02-15T03:25:45;16.20;;;7.00;;
57331;SDS011;43164;50.908;18.092;2023-02-15T03:28:18;15.50;;;7.10;;
57331;SDS011;43164;50.908;18.092;2023-02-15T03:30:55;21.30;;;10.00;;
57331;SDS011;43164;50.908;18.092;2023-02-15T03:33:24;25.60;;;10.60;;
57331;SDS011;43164;50.908;18.092;2023-02-15T03:35:57;28.30;;;11.40;;
57331;SDS011;43164;50.908;18.092;2023-02-15T03:38:36;18.60;;;7.90;;
57331;SDS011;43164;50.908;18.092;2023-02-15T03:41:41;16.10;;;8.40;;
57331;SDS011;43164;50.908;18.092;2023-02-15T03:44:31;41.50;;;17.20;;
57331;SDS011;43164;50.908;18.092;2023-02-15T03:47:05;36.00;;;15.30;;
57331;SDS011;43164;50.908;18.092;2023-02-15T03:50:00;31.30;;;13.50;;
57331;SDS011;43164;50.908;18.092;2023-02-15T03:52:57;17.50;;;8.00;;
57331;SDS011;43164;50.908;18.092;2023-02-15T03:55:27;17.00;;;7.00;;
57331;SDS011;43164;50.908;18.092;2023-02-15T03:57:55;16.20;;;6.30;;
57331;SDS011;43164;50.908;18.092;2023-02-15T04:00:44;18.60;;;8.40;;
57331;SDS011;43164;50.908;18.092;2023-02-15T04:03:44;24.30;;;10.80;;
57331;SDS011;43164;50.908;18.092;2023-02-15T04:06:26;23.50;;;9.40;;
57331;SDS011;43164;50.908;18.092;2023-02-15T04:08:54;17.80;;;8.20;;
57331;SDS011;43164;50.908;18.092;2023-02-15T04:11:41;18.20;;;8.20;;
57331;SDS011;43164;50.908;18.092;2023-02-15T04:14:09;18.70;;;8.60;;
57331;SDS011;43164;50.908;18.092;2023-02-15T04:16:57;19.40;;;8.50;;
57331;SDS011;43164;50.908;18.092;2023-02-15T04:19:24;18.00;;;8.40;;
57331;SDS011;43164;50.908;18.092;2023-02-15T04:22:12;17.40;;;8.30;;
57331;SDS011;43164;50.908;18.092;2023-02-15T04:24:59;17.60;;;8.00;;
57331;SDS011;43164;50.908;18.092;2023-02-15T04:27:44;19.40;;;8.80;;
57331;SDS011;43164;50.908;18.092;2023-02-15T04:30:13;18.10;;;8.80;;
57331;SDS011;43164;50.908;18.092;2023-02-15T04:32:42;17.20;;;8.70;;
57331;SDS011;43164;50.908;18.092;2023-02-15T04:35:09;19.00;;;8.70;;
57331;SDS011;43164;50.908;18.092;2023-02-15T04:37:38;21.90;;;9.50;;
57331;SDS011;43164;50.908;18.092;2023-02-15T04:40:07;19.60;;;8.90;;
57331;SDS011;43164;50.908;18.092;2023-02-15T04:42:36;20.40;;;9.50;;
57331;SDS011;43164;50.908;18.092;2023-02-15T04:45:04;20.80;;;10.60;;
57331;SDS011;43164;50.908;18.092;2023-02-15T04:47:33;23.70;;;10.20;;
57331;SDS011;43164;50.908;18.092;2023-02-15T04:50:00;22.20;;;10.20;;
57331;SDS011;43164;50.908;18.092;2023-02-15T04:52:28;23.20;;;10.70;;
57331;SDS011;43164;50.908;18.092;2023-02-15T04:54:55;23.10;;;11.30;;
57331;SDS011;43164;50.908;18.092;2023-02-15T04:57:23;22.30;;;11.40;;
57331;SDS011;43164;50.908;18.092;2023-02-15T04:59:51;20.20;;;10.10;;
57331;SDS011;43164;50.908;18.092;2023-02-15T05:02:18;22.30;;;10.40;;
57331;SDS011;43164;50.908;18.092;2023-02-15T05:04:45;20.00;;;9.90;;
57331;SDS011;43164;50.908;18.092;2023-02-15T05:07:13;19.40;;;9.70;;
57331;SDS011;43164;50.908;18.092;2023-02-15T05:09:41;21.80;;;10.70;;
57331;SDS011;43164;50.908;18.092;2023-02-15T05:12:09;24.00;;;11.30;;
57331;SDS011;43164;50.908;18.092;2023-02-15T05:14:36;23.30;;;11.70;;
57331;SDS011;43164;50.908;18.092;2023-02-15T05:17:04;21.00;;;10.50;;
57331;SDS011;43164;50.908;18.092;2023-02-15T05:19:31;28.20;;;12.40;;
57331;SDS011;43164;50.908;18.092;2023-02-15T05:21:59;23.50;;;11.50;;
57331;SDS011;43164;50.908;18.092;2023-02-15T05:24:26;20.80;;;10.30;;
57331;SDS011;43164;50.908;18.092;2023-02-15T05:27:13;20.30;;;10.50;;
57331;SDS011;43164;50.908;18.092;2023-02-15T05:30:00;25.70;;;13.10;;
57331;SDS011;43164;50.908;18.092;2023-02-15T05:32:27;29.40;;;13.70;;
57331;SDS011;43164;50.908;18.092;2023-02-15T05:34:55;24.30;;;11.90;;
57331;SDS011;43164;50.908;18.092;2023-02-15T05:37:22;24.00;;;11.10;;
57331;SDS011;43164;50.908;18.092;2023-02-15T05:39:50;26.60;;;13.40;;
57331;SDS011;43164;50.908;18.092;2023-02-15T05:42:19;24.50;;;11.70;;
57331;SDS011;43164;50.908;18.092;2023-02-15T05:44:46;21.00;;;10.50;;
57331;SDS011;43164;50.908;18.092;2023-02-15T05:47:14;18.60;;;10.10;;
57331;SDS011;43164;50.908;18.092;2023-02-15T05:49:42;22.20;;;11.50;;
57331;SDS011;43164;50.908;18.092;2023-02-15T05:52:10;22.60;;;10.80;;
57331;SDS011;43164;50.908;18.092;2023-02-15T05:54:38;20.90;;;10.10;;
57331;SDS011;43164;50.908;18.092;2023-02-15T05:57:06;21.90;;;11.30;;
57331;SDS011;43164;50.908;18.092;2023-02-15T05:59:33;22.80;;;11.30;;
57331;SDS011;43164;50.908;18.092;2023-02-15T06:02:01;25.80;;;11.90;;
57331;SDS011;43164;50.908;18.092;2023-02-15T06:04:28;25.00;;;13.10;;
57331;SDS011;43164;50.908;18.092;2023-02-15T06:06:56;31.00;;;15.50;;
57331;SDS011;43164;50.908;18.092;2023-02-15T06:09:24;36.40;;;17.70;;
57331;SDS011;43164;50.908;18.092;2023-02-15T06:11:51;34.50;;;16.50;;
57331;SDS011;43164;50.908;18.092;2023-02-15T06:14:19;31.10;;;14.80;;
57331;SDS011;43164;50.908;18.092;2023-02-15T06:16:47;37.30;;;17.40;;
57331;SDS011;43164;50.908;18.092;2023-02-15T06:19:15;35.90;;;17.80;;
57331;SDS011;43164;50.908;18.092;2023-02-15T06:21:43;34.00;;;17.40;;
57331;SDS011;43164;50.908;18.092;2023-02-15T06:24:11;39.70;;;17.90;;
57331;SDS011;43164;50.908;18.092;2023-02-15T06:26:38;44.00;;;19.20;;
57331;SDS011;43164;50.908;18.092;2023-02-15T06:29:06;40.20;;;18.50;;
57331;SDS011;43164;50.908;18.092;2023-02-15T06:31:34;40.20;;;18.30;;
57331;SDS011;43164;50.908;18.092;2023-02-15T06:34:02;34.20;;;16.60;;
57331;SDS011;43164;50.908;18.092;2023-02-15T06:36:30;36.70;;;16.80;;
57331;SDS011;43164;50.908;18.092;2023-02-15T06:39:03;34.90;;;17.20;;
57331;SDS011;43164;50.908;18.092;2023-02-15T06:41:31;39.60;;;18.00;;
57331;SDS011;43164;50.908;18.092;2023-02-15T06:43:59;40.00;;;18.40;;
57331;SDS011;43164;50.908;18.092;2023-02-15T06:46:36;39.00;;;17.50;;
57331;SDS011;43164;50.908;18.092;2023-02-15T06:49:04;37.00;;;17.50;;
57331;SDS011;43164;50.908;18.092;2023-02-15T06:51:32;33.40;;;16.20;;
57331;SDS011;43164;50.908;18.092;2023-02-15T06:54:00;33.90;;;16.20;;
57331;SDS011;43164;50.908;18.092;2023-02-15T06:56:28;30.50;;;15.90;;
57331;SDS011;43164;50.908;18.092;2023-02-15T06:58:57;33.10;;;15.90;;
57331;SDS011;43164;50.908;18.092;2023-02-15T07:01:29;35.50;;;17.10;;
57331;SDS011;43164;50.908;18.092;2023-02-15T07:04:01;36.90;;;18.20;;
57331;SDS011;43164;50.908;18.092;2023-02-15T07:06:33;36.40;;;17.30;;
57331;SDS011;43164;50.908;18.092;2023-02-15T07:09:02;36.70;;;17.70;;
57331;SDS011;43164;50.908;18.092;2023-02-15T07:11:31;36.40;;;18.00;;
57331;SDS011;43164;50.908;18.092;2023-02-15T07:14:19;40.50;;;18.90;;
57331;SDS011;43164;50.908;18.092;2023-02-15T07:16:47;34.90;;;18.30;;
57331;SDS011;43164;50.908;18.092;2023-02-15T07:19:16;39.00;;;19.10;;
57331;SDS011;43164;50.908;18.092;2023-02-15T07:21:46;40.30;;;17.90;;
57331;SDS011;43164;50.908;18.092;2023-02-15T07:24:17;35.30;;;18.20;;
57331;SDS011;43164;50.908;18.092;2023-02-15T07:26:52;35.80;;;18.10;;
57331;SDS011;43164;50.908;18.092;2023-02-15T07:29:25;38.60;;;17.90;;
57331;SDS011;43164;50.908;18.092;2023-02-15T07:31:53;35.80;;;18.30;;
57331;SDS011;43164;50.908;18.092;2023-02-15T07:34:22;34.00;;;18.20;;
57331;SDS011;43164;50.908;18.092;2023-02-15T07:36:57;37.10;;;17.40;;
57331;SDS011;43164;50.908;18.092;2023-02-15T07:39:33;37.80;;;19.70;;
57331;SDS011;43164;50.908;18.092;2023-02-15T07:44:55;36.60;;;19.00;;
57331;SDS011;43164;50.908;18.092;2023-02-15T07:47:23;35.30;;;18.80;;
57331;SDS011;43164;50.908;18.092;2023-02-15T07:49:51;42.40;;;20.80;;
57331;SDS011;43164;50.908;18.092;2023-02-15T07:52:21;35.80;;;19.90;;
57331;SDS011;43164;50.908;18.092;2023-02-15T07:54:57;39.60;;;20.70;;
57331;SDS011;43164;50.908;18.092;2023-02-15T07:57:24;38.60;;;20.20;;
57331;SDS011;43164;50.908;18.092;2023-02-15T07:59:52;37.60;;;19.50;;
57331;SDS011;43164;50.908;18.092;2023-02-15T08:02:20;35.60;;;19.00;;
57331;SDS011;43164;50.908;18.092;2023-02-15T08:04:48;37.30;;;19.00;;
57331;SDS011;43164;50.908;18.092;2023-02-15T08:07:16;34.10;;;18.70;;
57331;SDS011;43164;50.908;18.092;2023-02-15T08:09:46;36.20;;;17.60;;
57331;SDS011;43164;50.908;18.092;2023-02-15T08:12:14;34.60;;;19.00;;
57331;SDS011;43164;50.908;18.092;2023-02-15T08:14:41;33.50;;;17.80;;
57331;SDS011;43164;50.908;18.092;2023-02-15T08:17:11;34.30;;;18.50;;
57331;SDS011;43164;50.908;18.092;2023-02-15T08:19:38;34.50;;;16.80;;
57331;SDS011;43164;50.908;18.092;2023-02-15T08:22:07;37.90;;;19.00;;
57331;SDS011;43164;50.908;18.092;2023-02-15T08:24:40;35.60;;;18.40;;
57331;SDS011;43164;50.908;18.092;2023-02-15T08:27:09;38.40;;;20.30;;
57331;SDS011;43164;50.908;18.092;2023-02-15T08:29:44;32.40;;;18.50;;
57331;SDS011;43164;50.908;18.092;2023-02-15T08:32:17;37.70;;;18.40;;
57331;SDS011;43164;50.908;18.092;2023-02-15T08:34:55;34.90;;;18.60;;
57331;SDS011;43164;50.908;18.092;2023-02-15T08:37:23;34.80;;;18.20;;
57331;SDS011;43164;50.908;18.092;2023-02-15T08:39:53;36.80;;;19.90;;
57331;SDS011;43164;50.908;18.092;2023-02-15T08:42:22;35.60;;;20.10;;
57331;SDS011;43164;50.908;18.092;2023-02-15T08:44:52;38.50;;;20.90;;
57331;SDS011;43164;50.908;18.092;2023-02-15T08:47:20;39.50;;;20.30;;
57331;SDS011;43164;50.908;18.092;2023-02-15T08:49:49;36.20;;;18.80;;
57331;SDS011;43164;50.908;18.092;2023-02-15T08:52:17;39.60;;;20.60;;
57331;SDS011;43164;50.908;18.092;2023-02-15T08:54:46;39.70;;;20.90;;
57331;SDS011;43164;50.908;18.092;2023-02-15T08:57:16;40.10;;;19.70;;
57331;SDS011;43164;50.908;18.092;2023-02-15T08:59:45;43.10;;;21.20;;
57331;SDS011;43164;50.908;18.092;2023-02-15T09:02:13;41.50;;;20.90;;
57331;SDS011;43164;50.908;18.092;2023-02-15T09:04:42;45.30;;;23.40;;
57331;SDS011;43164;50.908;18.092;2023-02-15T09:07:23;46.80;;;23.80;;
57331;SDS011;43164;50.908;18.092;2023-02-15T09:10:04;47.10;;;24.00;;
57331;SDS011;43164;50.908;18.092;2023-02-15T09:18:23;44.50;;;22.80;;
57331;SDS011;43164;50.908;18.092;2023-02-15T09:21:14;44.00;;;22.60;;
57331;SDS011;43164;50.908;18.092;2023-02-15T09:23:57;47.30;;;24.30;;
57331;SDS011;43164;50.908;18.092;2023-02-15T09:26:37;47.80;;;24.10;;
57331;SDS011;43164;50.908;18.092;2023-02-15T09:29:17;43.30;;;23.70;;
57331;SDS011;43164;50.908;18.092;2023-02-15T09:31:47;41.40;;;21.80;;
57331;SDS011;43164;50.908;18.092;2023-02-15T09:34:28;46.50;;;23.70;;
57331;SDS011;43164;50.908;18.092;2023-02-15T09:37:04;43.20;;;23.40;;
57331;SDS011;43164;50.908;18.092;2023-02-15T09:39:39;43.60;;;23.20;;
57331;SDS011;43164;50.908;18.092;2023-02-15T09:42:19;41.30;;;21.60;;
57331;SDS011;43164;50.908;18.092;2023-02-15T09:46:01;56.80;;;22.50;;
57331;SDS011;43164;50.908;18.092;2023-02-15T09:48:48;41.10;;;20.00;;
57331;SDS011;43164;50.908;18.092;2023-02-15T09:57:01;38.30;;;19.80;;
57331;SDS011;43164;50.908;18.092;2023-02-15T10:00:07;43.40;;;20.60;;
57331;SDS011;43164;50.908;18.092;2023-02-15T10:06:25;46.20;;;23.70;;
57331;SDS011;43164;50.908;18.092;2023-02-15T10:19:35;39.20;;;20.90;;
57331;SDS011;43164;50.908;18.092;2023-02-15T10:22:14;41.20;;;23.30;;
57331;SDS011;43164;50.908;18.092;2023-02-15T10:28:04;31.80;;;17.10;;
57331;SDS011;43164;50.908;18.092;2023-02-15T10:30:56;30.50;;;16.60;;
57331;SDS011;43164;50.908;18.092;2023-02-15T10:33:43;32.90;;;18.00;;
57331;SDS011;43164;50.908;18.092;2023-02-15T10:36:38;32.30;;;17.90;;
57331;SDS011;43164;50.908;18.092;2023-02-15T10:39:25;29.60;;;16.90;;
57331;SDS011;43164;50.908;18.092;2023-02-15T10:48:05;32.80;;;18.10;;
57331;SDS011;43164;50.908;18.092;2023-02-15T11:04:39;31.20;;;16.80;;
57331;SDS011;43164;50.908;18.092;2023-02-15T11:07:23;32.00;;;18.00;;
57331;SDS011;43164;50.908;18.092;2023-02-15T11:10:27;34.10;;;17.40;;
57331;SDS011;43164;50.908;18.092;2023-02-15T11:13:18;31.10;;;16.70;;
57331;SDS011;43164;50.908;18.092;2023-02-15T11:19:35;33.50;;;18.60;;
57331;SDS011;43164;50.908;18.092;2023-02-15T11:22:22;32.00;;;17.70;;
57331;SDS011;43164;50.908;18.092;2023-02-15T11:24:53;30.40;;;17.70;;
57331;SDS011;43164;50.908;18.092;2023-02-15T11:27:23;31.40;;;16.20;;
57331;SDS011;43164;50.908;18.092;2023-02-15T11:32:34;30.50;;;16.50;;
57331;SDS011;43164;50.908;18.092;2023-02-15T11:37:41;32.10;;;17.30;;
57331;SDS011;43164;50.908;18.092;2023-02-15T11:43:13;33.70;;;18.10;;
57331;SDS011;43164;50.908;18.092;2023-02-15T11:45:47;30.90;;;17.60;;
57331;SDS011;43164;50.908;18.092;2023-02-15T11:48:21;29.90;;;17.20;;
57331;SDS011;43164;50.908;18.092;2023-02-15T11:50:54;31.30;;;18.20;;
57331;SDS011;43164;50.908;18.092;2023-02-15T11:53:37;34.60;;;18.60;;
57331;SDS011;43164;50.908;18.092;2023-02-15T11:56:12;31.70;;;16.90;;
57331;SDS011;43164;50.908;18.092;2023-02-15T12:01:36;34.30;;;19.10;;
57331;SDS011;43164;50.908;18.092;2023-02-15T12:06:58;37.00;;;19.50;;
57331;SDS011;43164;50.908;18.092;2023-02-15T12:12:35;35.00;;;19.00;;
57331;SDS011;43164;50.908;18.092;2023-02-15T12:15:04;35.60;;;19.60;;
57331;SDS011;43164;50.908;18.092;2023-02-15T12:17:48;37.60;;;20.50;;
57331;SDS011;43164;50.908;18.092;2023-02-15T12:22:54;34.30;;;20.40;;
57331;SDS011;43164;50.908;18.092;2023-02-15T12:31:30;33.50;;;18.00;;
57331;SDS011;43164;50.908;18.092;2023-02-15T12:37:02;46.20;;;25.20;;
57331;SDS011;43164;50.908;18.092;2023-02-15T12:40:02;41.90;;;22.10;;
57331;SDS011;43164;50.908;18.092;2023-02-15T12:49:39;35.80;;;19.30;;
57331;SDS011;43164;50.908;18.092;2023-02-15T12:56:12;37.40;;;20.20;;
57331;SDS011;43164;50.908;18.092;2023-02-15T13:06:38;42.60;;;23.80;;
57331;SDS011;43164;50.908;18.092;2023-02-15T13:09:20;47.80;;;24.40;;
57331;SDS011;43164;50.908;18.092;2023-02-15T13:14:46;47.30;;;24.60;;
57331;SDS011;43164;50.908;18.092;2023-02-15T13:17:29;48.60;;;25.60;;
57331;SDS011;43164;50.908;18.092;2023-02-15T13:23:06;47.90;;;24.90;;
57331;SDS011;43164;50.908;18.092;2023-02-15T13:25:47;45.60;;;23.60;;
57331;SDS011;43164;50.908;18.092;2023-02-15T13:28:24;50.90;;;24.60;;
57331;SDS011;43164;50.908;18.092;2023-02-15T13:31:15;42.30;;;22.90;;
57331;SDS011;43164;50.908;18.092;2023-02-15T13:33:55;47.60;;;22.90;;
57331;SDS011;43164;50.908;18.092;2023-02-15T13:36:38;43.80;;;22.10;;
57331;SDS011;43164;50.908;18.092;2023-02-15T13:42:35;40.10;;;19.20;;
57331;SDS011;43164;50.908;18.092;2023-02-15T13:48:29;39.20;;;20.70;;
57331;SDS011;43164;50.908;18.092;2023-02-15T13:51:09;38.20;;;20.00;;
57331;SDS011;43164;50.908;18.092;2023-02-15T13:53:58;39.60;;;20.10;;
57331;SDS011;43164;50.908;18.092;2023-02-15T14:02:22;42.30;;;21.30;;
57331;SDS011;43164;50.908;18.092;2023-02-15T14:18:19;38.10;;;19.10;;
57331;SDS011;43164;50.908;18.092;2023-02-15T14:21:12;42.00;;;20.90;;
57331;SDS011;43164;50.908;18.092;2023-02-15T14:35:15;33.60;;;16.90;;
57331;SDS011;43164;50.908;18.092;2023-02-15T14:38:14;36.20;;;17.60;;
57331;SDS011;43164;50.908;18.092;2023-02-15T14:41:18;37.70;;;18.60;;
57331;SDS011;43164;50.908;18.092;2023-02-15T14:44:35;37.00;;;18.70;;
57331;SDS011;43164;50.908;18.092;2023-02-15T14:49:40;33.10;;;16.80;;
57331;SDS011;43164;50.908;18.092;2023-02-15T14:55:14;38.20;;;19.10;;
57331;SDS011;43164;50.908;18.092;2023-02-15T15:06:19;34.90;;;17.50;;
57331;SDS011;43164;50.908;18.092;2023-02-15T15:19:12;29.80;;;13.10;;
57331;SDS011;43164;50.908;18.092;2023-02-15T15:22:18;27.50;;;13.20;;
57331;SDS011;43164;50.908;18.092;2023-02-15T15:24:48;28.30;;;13.70;;
57331;SDS011;43164;50.908;18.092;2023-02-15T15:27:42;28.10;;;14.00;;
57331;SDS011;43164;50.908;18.092;2023-02-15T15:33:12;27.10;;;12.70;;
57331;SDS011;43164;50.908;18.092;2023-02-15T15:50:22;32.70;;;15.00;;
57331;SDS011;43164;50.908;18.092;2023-02-15T15:52:57;37.50;;;18.20;;
57331;SDS011;43164;50.908;18.092;2023-02-15T15:55:30;39.40;;;18.50;;
57331;SDS011;43164;50.908;18.092;2023-02-15T15:58:05;33.40;;;16.70;;
57331;SDS011;43164;50.908;18.092;2023-02-15T16:00:36;33.20;;;15.50;;
57331;SDS011;43164;50.908;18.092;2023-02-15T16:03:47;29.50;;;13.20;;
57331;SDS011;43164;50.908;18.092;2023-02-15T16:06:03;34.20;;;15.30;;
57331;SDS011;43164;50.908;18.092;2023-02-15T16:08:37;31.60;;;13.60;;
57331;SDS011;43164;50.908;18.092;2023-02-15T16:11:19;27.60;;;13.20;;
57331;SDS011;43164;50.908;18.092;2023-02-15T16:13:54;27.20;;;12.10;;
57331;SDS011;43164;50.908;18.092;2023-02-15T16:16:27;26.80;;;12.70;;
57331;SDS011;43164;50.908;18.092;2023-02-15T16:29:12;32.20;;;14.40;;
57331;SDS011;43164;50.908;18.092;2023-02-15T16:37:48;42.40;;;18.50;;
57331;SDS011;43164;50.908;18.092;2023-02-15T16:42:59;43.30;;;21.00;;
57331;SDS011;43164;50.908;18.092;2023-02-15T16:45:35;44.30;;;23.10;;
57331;SDS011;43164;50.908;18.092;2023-02-15T16:48:17;41.00;;;21.70;;
57331;SDS011;43164;50.908;18.092;2023-02-15T16:50:53;32.10;;;14.80;;
57331;SDS011;43164;50.908;18.092;2023-02-15T16:53:46;36.90;;;16.80;;
57331;SDS011;43164;50.908;18.092;2023-02-15T17:06:23;35.30;;;15.50;;
57331;SDS011;43164;50.908;18.092;2023-02-15T17:15:28;40.10;;;16.50;;
57331;SDS011;43164;50.908;18.092;2023-02-15T17:19:14;42.60;;;18.10;;
57331;SDS011;43164;50.908;18.092;2023-02-15T17:21:57;46.70;;;20.20;;
57331;SDS011;43164;50.908;18.092;2023-02-15T17:24:41;41.50;;;18.10;;
57331;SDS011;43164;50.908;18.092;2023-02-15T17:29:59;44.40;;;19.10;;
57331;SDS011;43164;50.908;18.092;2023-02-15T17:32:31;41.70;;;18.60;;
57331;SDS011;43164;50.908;18.092;2023-02-15T17:40:43;45.40;;;18.90;;
57331;SDS011;43164;50.908;18.092;2023-02-15T17:43:19;43.40;;;17.90;;
57331;SDS011;43164;50.908;18.092;2023-02-15T17:45:52;44.90;;;19.00;;
57331;SDS011;43164;50.908;18.092;2023-02-15T17:48:35;48.30;;;19.80;;
57331;SDS011;43164;50.908;18.092;2023-02-15T17:51:10;42.00;;;18.00;;
57331;SDS011;43164;50.908;18.092;2023-02-15T17:53:48;45.20;;;18.50;;
57331;SDS011;43164;50.908;18.092;2023-02-15T17:56:37;44.90;;;18.00;;
57331;SDS011;43164;50.908;18.092;2023-02-15T17:59:06;48.80;;;19.00;;
57331;SDS011;43164;50.908;18.092;2023-02-15T18:01:36;43.10;;;19.10;;
57331;SDS011;43164;50.908;18.092;2023-02-15T18:04:35;44.60;;;18.20;;
57331;SDS011;43164;50.908;18.092;2023-02-15T18:07:24;44.20;;;18.70;;
57331;SDS011;43164;50.908;18.092;2023-02-15T18:10:14;43.70;;;17.80;;
57331;SDS011;43164;50.908;18.092;2023-02-15T18:13:13;40.00;;;17.40;;
57331;SDS011;43164;50.908;18.092;2023-02-15T18:15:47;38.30;;;15.00;;
57331;SDS011;43164;50.908;18.092;2023-02-15T18:18:21;34.30;;;15.00;;
57331;SDS011;43164;50.908;18.092;2023-02-15T18:20:53;35.40;;;15.00;;
57331;SDS011;43164;50.908;18.092;2023-02-15T18:23:22;34.00;;;14.30;;
57331;SDS011;43164;50.908;18.092;2023-02-15T18:25:50;31.20;;;13.30;;
57331;SDS011;43164;50.908;18.092;2023-02-15T18:28:19;32.30;;;13.80;;
57331;SDS011;43164;50.908;18.092;2023-02-15T18:30:47;30.50;;;12.50;;
57331;SDS011;43164;50.908;18.092;2023-02-15T18:33:32;27.40;;;11.30;;
57331;SDS011;43164;50.908;18.092;2023-02-15T18:36:04;27.80;;;11.80;;
57331;SDS011;43164;50.908;18.092;2023-02-15T18:38:37;24.70;;;10.00;;
57331;SDS011;43164;50.908;18.092;2023-02-15T18:41:06;25.50;;;10.50;;
57331;SDS011;43164;50.908;18.092;2023-02-15T18:43:37;36.90;;;15.80;;
57331;SDS011;43164;50.908;18.092;2023-02-15T18:46:05;31.80;;;13.60;;
57331;SDS011;43164;50.908;18.092;2023-02-15T18:48:34;31.00;;;13.00;;
57331;SDS011;43164;50.908;18.092;2023-02-15T18:51:03;39.60;;;16.90;;
57331;SDS011;43164;50.908;18.092;2023-02-15T18:53:44;49.70;;;19.30;;
57331;SDS011;43164;50.908;18.092;2023-02-15T18:56:14;49.80;;;20.10;;
57331;SDS011;43164;50.908;18.092;2023-02-15T18:58:49;50.60;;;20.20;;
57331;SDS011;43164;50.908;18.092;2023-02-15T19:01:18;48.20;;;19.70;;
57331;SDS011;43164;50.908;18.092;2023-02-15T19:03:57;49.20;;;20.10;;
57331;SDS011;43164;50.908;18.092;2023-02-15T19:06:27;54.50;;;22.80;;
57331;SDS011;43164;50.908;18.092;2023-02-15T19:09:01;58.00;;;23.00;;
57331;SDS011;43164;50.908;18.092;2023-02-15T19:11:30;48.70;;;19.10;;
57331;SDS011;43164;50.908;18.092;2023-02-15T19:14:11;50.10;;;19.60;;